createdAt,value
2019-02-24T00:00:48.616Z,11.10
2019-02-24T00:03:17.727Z,13.47
2019-02-24T00:05:47.095Z,11.80
2019-02-24T00:08:16.214Z,9.30
2019-02-24T00:10:45.319Z,10.17
2019-02-24T00:13:13.959Z,11.07
2019-02-24T00:15:42.824Z,11.03
2019-02-24T00:18:11.695Z,8.67
2019-02-24T00:20:40.624Z,10.20
2019-02-24T00:23:09.946Z,11.67
2019-02-24T00:25:38.845Z,14.33
2019-02-24T00:28:07.750Z,10.23
2019-02-24T00:30:36.871Z,10.67
2019-02-24T00:33:05.730Z,10.73
2019-02-24T00:35:35.125Z,12.87
2019-02-24T00:38:03.756Z,11.40
2019-02-24T00:40:32.627Z,11.77
2019-02-24T00:43:01.494Z,11.87
2019-02-24T00:45:30.383Z,11.13
2019-02-24T00:47:59.203Z,15.60
2019-02-24T00:50:27.824Z,10.33
2019-02-24T00:52:56.444Z,11.00
2019-02-24T00:55:25.305Z,17.93
2019-02-24T00:57:54.216Z,11.13
2019-02-24T01:00:22.820Z,14.23
2019-02-24T01:02:51.931Z,12.17
2019-02-24T01:05:20.561Z,10.83
2019-02-24T01:07:49.422Z,11.43
2019-02-24T01:10:18.292Z,10.97
2019-02-24T01:12:46.917Z,12.17
2019-02-24T01:15:15.780Z,12.77
2019-02-24T01:17:44.633Z,10.87
2019-02-24T01:20:13.324Z,10.33
2019-02-24T01:22:42.290Z,13.23
2019-02-24T01:25:11.164Z,14.13
2019-02-24T01:27:40.121Z,10.73
2019-02-24T01:30:09.445Z,12.07
2019-02-24T01:32:38.061Z,11.23
2019-02-24T01:35:07.460Z,13.77
2019-02-24T01:37:36.355Z,15.23
2019-02-24T01:40:05.492Z,11.10
2019-02-24T01:42:34.116Z,14.43
2019-02-24T01:45:02.744Z,13.60
2019-02-24T01:47:31.641Z,14.13
2019-02-24T01:50:00.295Z,12.77
2019-02-24T01:52:29.397Z,12.30
2019-02-24T01:54:58.272Z,13.60
2019-02-24T01:57:27.672Z,16.77
2019-02-24T01:59:56.572Z,11.90
2019-02-24T02:02:25.177Z,11.87
2019-02-24T02:04:54.067Z,12.83
2019-02-24T02:07:23.181Z,11.03
2019-02-24T02:09:52.047Z,11.07
2019-02-24T02:12:20.747Z,10.53
2019-02-24T02:14:49.980Z,13.53
2019-02-24T02:17:19.100Z,15.27
2019-02-24T02:19:47.744Z,12.87
2019-02-24T02:22:16.649Z,13.03
2019-02-24T02:24:45.533Z,12.23
2019-02-24T02:27:14.903Z,12.90
2019-02-24T02:29:44.010Z,14.50
2019-02-24T02:32:12.707Z,15.17
2019-02-24T02:34:41.343Z,14.77
2019-02-24T02:37:10.275Z,11.93
2019-02-24T02:39:39.145Z,13.13
2019-02-24T02:42:08.057Z,13.17
2019-02-24T02:44:36.898Z,14.13
2019-02-24T02:47:05.534Z,13.08
2019-02-24T02:49:34.376Z,12.93
2019-02-24T02:52:03.511Z,12.90
2019-02-24T02:54:32.404Z,14.77
2019-02-24T02:57:01.774Z,17.02
2019-02-24T02:59:30.650Z,14.40
2019-02-24T03:02:00.325Z,15.58
2019-02-24T03:04:28.925Z,14.80
2019-02-24T03:07:19.858Z,13.45
2019-02-24T03:09:49.237Z,15.53
2019-02-24T03:12:18.095Z,15.77
2019-02-24T03:14:46.760Z,13.75
2019-02-24T03:17:15.655Z,14.50
2019-02-24T03:19:44.756Z,15.53
2019-02-24T03:22:13.637Z,16.83
2019-02-24T03:24:42.279Z,13.17
2019-02-24T03:27:11.167Z,15.53
2019-02-24T03:29:40.044Z,12.58
2019-02-24T03:32:08.910Z,14.93
2019-02-24T03:34:37.791Z,16.05
2019-02-24T03:37:06.679Z,16.73
2019-02-24T03:39:35.284Z,15.43
2019-02-24T03:42:04.524Z,15.88
2019-02-24T03:44:33.416Z,16.07
2019-02-24T03:47:02.025Z,13.83
2019-02-24T03:49:30.974Z,14.63
2019-02-24T03:51:59.950Z,16.00
2019-02-24T03:54:28.640Z,15.27
2019-02-24T03:56:57.262Z,16.67
2019-02-24T03:59:25.909Z,16.82
2019-02-24T04:01:54.793Z,17.07
2019-02-24T04:04:23.650Z,15.07
2019-02-24T04:06:52.527Z,17.93
2019-02-24T04:09:21.380Z,16.10
2019-02-24T04:11:50.733Z,15.23
2019-02-24T04:14:19.648Z,16.48
2019-02-24T04:16:48.774Z,18.83
2019-02-24T04:19:17.650Z,15.43
2019-02-24T04:21:46.524Z,18.43
2019-02-24T04:24:15.627Z,17.47
2019-02-24T04:26:44.799Z,16.50
2019-02-24T04:29:13.907Z,14.17
2019-02-24T04:31:42.759Z,19.30
2019-02-24T04:34:11.397Z,18.27
2019-02-24T04:36:40.010Z,21.33
2019-02-24T04:39:08.911Z,18.95
2019-02-24T04:41:38.351Z,19.23
2019-02-24T04:44:07.229Z,19.20
2019-02-24T04:46:36.135Z,17.50
2019-02-24T04:49:05.262Z,15.85
2019-02-24T04:51:34.383Z,18.87
2019-02-24T04:54:03.272Z,17.95
2019-02-24T04:56:32.177Z,19.20
2019-02-24T04:59:01.584Z,17.95
2019-02-24T05:01:30.541Z,19.12
2019-02-24T05:03:59.202Z,18.25
2019-02-24T05:06:27.837Z,20.35
2019-02-24T05:08:57.007Z,20.82
2019-02-24T05:11:25.921Z,16.53
2019-02-24T05:13:54.592Z,19.40
2019-02-24T05:16:23.487Z,23.83
2019-02-24T05:18:52.124Z,18.30
2019-02-24T05:21:20.986Z,22.40
2019-02-24T05:23:49.628Z,19.87
2019-02-24T05:26:18.265Z,19.03
2019-02-24T05:28:46.907Z,19.23
2019-02-24T05:31:15.867Z,19.65
2019-02-24T05:33:44.820Z,23.73
2019-02-24T05:36:13.477Z,20.23
2019-02-24T05:38:42.608Z,22.47
2019-02-24T05:41:11.730Z,21.87
2019-02-24T05:43:40.381Z,21.63
2019-02-24T05:46:09.214Z,19.33
2019-02-24T05:48:37.884Z,22.02
2019-02-24T05:51:06.755Z,23.22
2019-02-24T05:53:35.596Z,22.13
2019-02-24T05:56:04.483Z,18.77
2019-02-24T05:58:33.107Z,17.37
2019-02-24T06:01:02.483Z,21.03
2019-02-24T06:03:31.143Z,21.53
2019-02-24T06:06:00.249Z,20.53
2019-02-24T06:08:29.110Z,20.13
2019-02-24T06:10:58.496Z,21.77
2019-02-24T06:13:27.141Z,19.80
2019-02-24T06:15:56.273Z,19.27
2019-02-24T06:18:25.409Z,19.87
2019-02-24T06:20:54.312Z,21.60
2019-02-24T06:23:22.972Z,18.98
2019-02-24T06:25:51.861Z,24.43
2019-02-24T06:28:20.942Z,21.90
2019-02-24T06:30:50.083Z,25.70
2019-02-24T06:33:18.944Z,24.00
2019-02-24T06:35:48.101Z,23.52
2019-02-24T06:38:16.757Z,24.40
2019-02-24T06:40:45.835Z,24.00
2019-02-24T06:43:14.690Z,22.50
2019-02-24T06:45:43.698Z,20.77
2019-02-24T06:48:12.573Z,21.50
2019-02-24T06:50:54.385Z,22.57
2019-02-24T06:53:23.285Z,18.97
2019-02-24T06:55:52.008Z,22.17
2019-02-24T06:58:21.137Z,22.23
2019-02-24T07:00:50.253Z,22.33
2019-02-24T07:03:19.374Z,31.17
2019-02-24T07:05:48.249Z,21.37
2019-02-24T07:08:17.162Z,20.10
2019-02-24T07:10:46.294Z,21.70
2019-02-24T07:13:15.706Z,21.43
2019-02-24T07:15:44.613Z,24.20
2019-02-24T07:18:13.307Z,24.30
2019-02-24T07:20:42.234Z,22.73
2019-02-24T07:23:11.631Z,24.10
2019-02-24T07:25:40.485Z,26.77
2019-02-24T07:28:09.136Z,22.97
2019-02-24T07:30:38.070Z,23.93
2019-02-24T07:33:06.923Z,21.50
2019-02-24T07:35:35.617Z,22.63
2019-02-24T07:38:04.724Z,23.87
2019-02-24T07:40:33.327Z,20.03
2019-02-24T07:43:02.487Z,20.73
2019-02-24T07:45:31.391Z,23.27
2019-02-24T07:48:00.500Z,26.27
2019-02-24T07:50:29.468Z,22.27
2019-02-24T07:52:58.097Z,19.30
2019-02-24T07:55:26.725Z,23.83
2019-02-24T07:57:55.627Z,24.43
2019-02-24T08:00:32.045Z,22.43
2019-02-24T08:02:54.879Z,25.73
2019-02-24T08:05:23.868Z,24.00
2019-02-24T08:07:52.529Z,24.43
2019-02-24T08:10:21.404Z,20.00
2019-02-24T08:12:50.534Z,22.33
2019-02-24T08:15:19.270Z,22.83
2019-02-24T08:17:48.152Z,20.80
2019-02-24T08:20:17.274Z,21.13
2019-02-24T08:22:46.388Z,24.17
2019-02-24T08:25:15.273Z,23.77
2019-02-24T08:27:43.949Z,19.70
2019-02-24T08:30:12.661Z,21.07
2019-02-24T08:32:41.857Z,20.27
2019-02-24T08:35:10.597Z,19.67
2019-02-24T08:37:39.711Z,20.13
2019-02-24T08:40:08.927Z,19.10
2019-02-24T08:42:37.862Z,20.23
2019-02-24T08:45:07.527Z,19.40
2019-02-24T08:47:36.160Z,18.63
2019-02-24T08:50:05.775Z,20.90
2019-02-24T08:52:34.415Z,18.03
2019-02-24T08:55:03.038Z,19.93
2019-02-24T08:57:32.271Z,19.53
2019-02-24T09:00:01.260Z,19.50
2019-02-24T09:02:30.126Z,19.43
2019-02-24T09:04:59.012Z,20.90
2019-02-24T09:07:27.649Z,20.27
2019-02-24T09:09:56.282Z,20.20
2019-02-24T09:12:24.953Z,20.07
2019-02-24T09:14:53.837Z,20.83
2019-02-24T09:17:23.312Z,20.90
2019-02-24T09:19:51.977Z,18.97
2019-02-24T09:22:20.616Z,18.57
2019-02-24T09:24:49.252Z,19.40
2019-02-24T09:27:18.476Z,18.33
2019-02-24T09:29:47.356Z,18.27
2019-02-24T09:32:16.304Z,18.67
2019-02-24T09:34:44.953Z,20.00
2019-02-24T09:37:14.107Z,17.97
2019-02-24T09:39:42.761Z,19.80
2019-02-24T09:42:14.205Z,18.53
2019-02-24T09:44:43.099Z,17.97
2019-02-24T09:47:12.319Z,18.30
2019-02-24T09:49:41.445Z,17.23
2019-02-24T09:52:10.340Z,17.80
2019-02-24T09:54:39.276Z,18.00
2019-02-24T09:57:08.232Z,19.57
2019-02-24T09:59:37.566Z,18.17
2019-02-24T10:02:06.598Z,18.10
2019-02-24T10:04:35.478Z,17.23
2019-02-24T10:07:04.665Z,19.60
2019-02-24T10:09:33.543Z,18.37
2019-02-24T10:12:02.189Z,21.57
2019-02-24T10:14:31.096Z,18.83
2019-02-24T10:16:59.979Z,20.40
2019-02-24T10:19:31.177Z,20.40
2019-02-24T10:21:59.709Z,18.50
2019-02-24T10:24:28.573Z,22.03
2019-02-24T10:26:57.443Z,19.87
2019-02-24T10:29:26.340Z,19.57
2019-02-24T10:31:55.199Z,19.63
2019-02-24T10:34:23.840Z,19.70
2019-02-24T10:36:52.813Z,18.33
2019-02-24T10:39:29.532Z,18.83
2019-02-24T10:41:53.736Z,18.33
2019-02-24T10:44:22.640Z,19.30
2019-02-24T10:46:51.775Z,21.40
2019-02-24T10:49:20.666Z,21.30
2019-02-24T10:51:49.295Z,19.00
2019-02-24T10:54:18.155Z,19.93
2019-02-24T10:56:47.104Z,19.83
2019-02-24T10:59:16.988Z,16.77
2019-02-24T11:01:45.755Z,19.90
2019-02-24T11:04:15.412Z,18.33
2019-02-24T11:06:44.649Z,18.97
2019-02-24T11:09:13.856Z,19.80
2019-02-24T11:11:43.107Z,19.77
2019-02-24T11:14:12.059Z,19.20
2019-02-24T11:16:40.924Z,17.57
2019-02-24T11:19:09.803Z,19.30
2019-02-24T11:21:38.449Z,18.03
2019-02-24T11:24:07.093Z,20.43
2019-02-24T11:26:36.029Z,19.57
2019-02-24T11:29:04.743Z,19.13
2019-02-24T11:31:38.396Z,19.13
2019-02-24T11:34:03.774Z,19.03
2019-02-24T11:36:32.514Z,18.40
2019-02-24T11:39:01.388Z,17.03
2019-02-24T11:41:30.763Z,15.40
2019-02-24T11:43:59.506Z,17.43
2019-02-24T11:46:28.400Z,17.20
2019-02-24T11:48:57.299Z,19.33
2019-02-24T11:51:25.954Z,17.77
2019-02-24T11:53:54.929Z,15.47
2019-02-24T11:56:23.818Z,18.43
2019-02-24T11:58:52.842Z,20.53
2019-02-24T12:01:21.938Z,17.33
2019-02-24T12:03:50.842Z,19.03
2019-02-24T12:06:19.746Z,17.43
2019-02-24T12:08:48.605Z,18.10
2019-02-24T12:11:18.045Z,17.60
2019-02-24T12:13:47.176Z,17.43
2019-02-24T12:16:16.051Z,16.87
2019-02-24T12:18:44.960Z,16.77
2019-02-24T12:21:14.128Z,17.40
2019-02-24T12:23:43.240Z,16.30
2019-02-24T12:26:12.384Z,14.93
2019-02-24T12:28:41.517Z,20.17
2019-02-24T12:31:10.664Z,15.80
2019-02-24T12:33:39.415Z,16.23
2019-02-24T12:36:08.046Z,16.80
2019-02-24T12:38:37.244Z,16.23
2019-02-24T12:41:06.227Z,18.37
2019-02-24T12:43:35.095Z,18.07
2019-02-24T12:46:04.021Z,16.83
2019-02-24T12:48:32.663Z,18.63
2019-02-24T12:51:01.270Z,17.90
2019-02-24T12:53:30.139Z,17.10
2019-02-24T12:55:59.365Z,17.07
2019-02-24T12:58:28.575Z,16.97
2019-02-24T13:00:57.548Z,16.50
2019-02-24T13:03:26.179Z,17.73
2019-02-24T13:05:55.054Z,18.43
2019-02-24T13:08:23.951Z,18.83
2019-02-24T13:10:52.592Z,20.13
2019-02-24T13:13:21.461Z,19.27
2019-02-24T13:15:50.575Z,17.87
2019-02-24T13:18:19.226Z,19.83
2019-02-24T13:20:48.102Z,19.27
2019-02-24T13:23:16.993Z,17.97
2019-02-24T13:25:45.875Z,24.27
2019-02-24T13:28:14.732Z,21.27
2019-02-24T13:30:43.622Z,20.47
2019-02-24T13:33:12.587Z,18.47
2019-02-24T13:35:41.216Z,18.73
2019-02-24T13:38:10.363Z,18.70
2019-02-24T13:40:39.216Z,19.83
2019-02-24T13:43:08.334Z,18.70
2019-02-24T13:45:37.218Z,19.53
2019-02-24T13:48:05.837Z,20.37
2019-02-24T13:50:34.699Z,19.17
2019-02-24T13:53:03.865Z,19.57
2019-02-24T13:55:32.502Z,21.30
2019-02-24T13:58:01.675Z,18.43
2019-02-24T14:00:30.627Z,16.03
2019-02-24T14:02:59.568Z,17.30
2019-02-24T14:05:28.769Z,16.03
2019-02-24T14:07:57.408Z,15.30
2019-02-24T14:10:26.038Z,15.20
2019-02-24T14:12:54.935Z,16.87
2019-02-24T14:15:23.662Z,17.93
2019-02-24T14:17:52.300Z,20.93
2019-02-24T14:20:20.961Z,18.13
2019-02-24T14:22:50.305Z,16.20
2019-02-24T14:25:19.243Z,16.80
2019-02-24T14:27:47.992Z,16.30
2019-02-24T14:30:16.703Z,16.80
2019-02-24T14:32:45.652Z,15.73
2019-02-24T14:35:14.869Z,16.63
2019-02-24T14:37:43.498Z,19.73
2019-02-24T14:40:12.435Z,16.03
2019-02-24T14:42:41.075Z,17.70
2019-02-24T14:45:12.300Z,14.63
2019-02-24T14:47:41.263Z,13.70
2019-02-24T14:50:10.176Z,15.37
2019-02-24T14:52:38.832Z,16.30
2019-02-24T14:55:08.281Z,16.27
2019-02-24T14:57:36.863Z,18.40
2019-02-24T15:00:06.451Z,17.07
2019-02-24T15:02:42.133Z,18.80
2019-02-24T15:05:06.729Z,17.40
2019-02-24T15:07:35.612Z,17.83
2019-02-24T15:10:04.909Z,15.87
2019-02-24T15:12:33.808Z,16.43
2019-02-24T15:15:02.455Z,19.60
2019-02-24T15:17:31.347Z,16.20
2019-02-24T15:20:00.452Z,18.73
2019-02-24T15:22:29.602Z,18.83
2019-02-24T15:24:58.749Z,19.10
2019-02-24T15:27:27.631Z,17.73
2019-02-24T15:29:56.796Z,18.43
2019-02-24T15:32:25.711Z,19.30
2019-02-24T15:34:55.104Z,16.87
2019-02-24T15:37:23.739Z,18.40
2019-02-24T15:39:52.887Z,16.67
2019-02-24T15:42:21.775Z,13.67
2019-02-24T15:44:50.672Z,16.83
2019-02-24T15:47:19.552Z,13.43
2019-02-24T15:49:48.182Z,14.33
2019-02-24T15:52:17.332Z,17.63
2019-02-24T15:54:46.245Z,21.40
2019-02-24T15:57:14.879Z,16.00
2019-02-24T15:59:47.833Z,15.37
2019-02-24T16:02:17.112Z,16.57
2019-02-24T16:04:45.757Z,14.93
2019-02-24T16:07:14.616Z,15.70
2019-02-24T16:09:43.494Z,17.33
2019-02-24T16:12:12.463Z,18.10
2019-02-24T16:14:41.124Z,21.33
2019-02-24T16:17:10.039Z,18.20
2019-02-24T16:19:38.981Z,19.60
2019-02-24T16:22:07.690Z,20.87
2019-02-24T16:24:36.603Z,20.67
2019-02-24T16:27:05.320Z,20.57
2019-02-24T16:29:33.988Z,16.87
2019-02-24T16:32:02.620Z,19.97
2019-02-24T16:34:31.234Z,20.63
2019-02-24T16:37:00.386Z,40.43
2019-02-24T16:39:29.283Z,21.03
2019-02-24T16:41:58.159Z,19.17
2019-02-24T16:44:27.613Z,19.87
2019-02-24T16:46:56.582Z,23.77
2019-02-24T16:49:25.964Z,20.43
2019-02-24T16:51:55.079Z,22.33
2019-02-24T16:54:24.621Z,23.67
2019-02-24T16:56:53.684Z,21.67
2019-02-24T16:59:22.792Z,25.97
2019-02-24T17:01:51.701Z,22.77
2019-02-24T17:04:20.571Z,22.80
2019-02-24T17:06:49.423Z,22.90
2019-02-24T17:09:18.579Z,23.03
2019-02-24T17:11:47.460Z,21.10
2019-02-24T17:14:16.584Z,22.23
2019-02-24T17:16:45.477Z,21.47
2019-02-24T17:19:14.331Z,24.17
2019-02-24T17:21:43.472Z,23.30
2019-02-24T17:24:12.622Z,27.57
2019-02-24T17:26:41.244Z,27.43
2019-02-24T17:29:10.109Z,39.73
2019-02-24T17:31:39.015Z,26.40
2019-02-24T17:34:07.616Z,27.10
2019-02-24T17:36:36.219Z,36.87
2019-02-24T17:39:06.653Z,34.37
2019-02-24T17:41:35.561Z,34.23
2019-02-24T17:44:04.769Z,31.13
2019-02-24T17:46:33.645Z,29.30
2019-02-24T17:49:02.263Z,26.80
2019-02-24T17:51:31.150Z,26.83
2019-02-24T17:54:00.045Z,44.90
2019-02-24T17:56:28.907Z,44.53
2019-02-24T17:59:05.937Z,38.13
2019-02-24T18:01:34.877Z,30.07
2019-02-24T18:04:04.714Z,30.50
2019-02-24T18:06:33.594Z,29.80
2019-02-24T18:09:02.475Z,29.13
2019-02-24T18:11:31.369Z,35.33
2019-02-24T18:14:00.283Z,28.53
2019-02-24T18:16:29.165Z,29.03
2019-02-24T18:18:58.394Z,25.97
2019-02-24T18:21:27.272Z,27.40
2019-02-24T18:23:56.189Z,29.17
2019-02-24T18:26:25.064Z,32.33
2019-02-24T18:28:53.948Z,29.00
2019-02-24T18:31:22.565Z,27.93
2019-02-24T18:33:51.232Z,31.77
2019-02-24T18:36:20.091Z,28.77
2019-02-24T18:38:48.685Z,26.93
2019-02-24T18:41:17.543Z,35.93
2019-02-24T18:43:46.214Z,30.33
2019-02-24T18:46:15.122Z,31.20
2019-02-24T18:48:43.755Z,30.40
2019-02-24T18:51:12.878Z,28.70
2019-02-24T18:53:42.064Z,30.90
2019-02-24T18:56:10.981Z,32.10
2019-02-24T18:58:39.870Z,33.83
2019-02-24T19:01:08.596Z,31.00
2019-02-24T19:03:37.473Z,29.40
2019-02-24T19:06:06.427Z,31.37
2019-02-24T19:08:35.426Z,30.33
2019-02-24T19:11:04.137Z,34.17
2019-02-24T19:13:32.982Z,29.80
2019-02-24T19:16:02.184Z,31.87
2019-02-24T19:18:31.296Z,28.27
2019-02-24T19:21:00.394Z,27.20
2019-02-24T19:23:29.320Z,29.50
2019-02-24T19:25:58.037Z,31.47
2019-02-24T19:28:26.701Z,34.17
2019-02-24T19:30:55.614Z,32.20
2019-02-24T19:33:24.729Z,37.80
2019-02-24T19:35:53.619Z,44.43
2019-02-24T19:38:22.991Z,41.57
2019-02-24T19:40:51.700Z,40.87
2019-02-24T19:43:20.428Z,34.27
2019-02-24T19:45:49.296Z,30.83
2019-02-24T19:48:18.035Z,34.47
2019-02-24T19:50:46.969Z,33.77
2019-02-24T19:53:16.127Z,31.30
2019-02-24T19:55:45.000Z,29.20
2019-02-24T19:58:13.862Z,33.27
2019-02-24T20:00:42.774Z,28.10
2019-02-24T20:03:11.814Z,31.67
2019-02-24T20:05:40.910Z,30.37
2019-02-24T20:08:09.841Z,29.60
2019-02-24T20:10:38.926Z,31.60
2019-02-24T20:13:07.792Z,27.17
2019-02-24T20:15:37.079Z,34.43
2019-02-24T20:18:06.206Z,31.47
2019-02-24T20:20:35.107Z,30.03
2019-02-24T20:23:04.086Z,32.27
2019-02-24T20:25:32.970Z,31.03
2019-02-24T20:28:02.341Z,32.37
2019-02-24T20:30:31.004Z,29.17
2019-02-24T20:32:59.608Z,29.13
2019-02-24T20:35:28.559Z,38.37
2019-02-24T20:37:57.538Z,34.53
2019-02-24T20:40:26.248Z,29.87
2019-02-24T20:42:55.361Z,30.60
2019-02-24T20:45:24.258Z,31.10
2019-02-24T20:47:53.092Z,31.47
2019-02-24T20:50:22.152Z,30.60
2019-02-24T20:52:50.784Z,31.73
2019-02-24T20:55:20.096Z,34.53
2019-02-24T20:57:48.714Z,31.30
2019-02-24T21:00:26.098Z,31.70
2019-02-24T21:02:55.209Z,35.33
2019-02-24T21:05:23.851Z,33.53
2019-02-24T21:07:52.758Z,31.37
2019-02-24T21:10:21.536Z,33.87
2019-02-24T21:12:50.665Z,33.33
2019-02-24T21:15:19.406Z,31.97
2019-02-24T21:17:48.035Z,31.47
2019-02-24T21:20:18.692Z,34.80
2019-02-24T21:22:47.402Z,33.77
2019-02-24T21:25:16.499Z,37.83
2019-02-24T21:27:45.619Z,39.10
2019-02-24T21:30:15.640Z,35.30
2019-02-24T21:32:45.640Z,32.83
2019-02-24T21:35:14.755Z,33.93
2019-02-24T21:37:44.638Z,36.83
2019-02-24T21:40:13.897Z,34.20
2019-02-24T21:42:42.571Z,35.00
2019-02-24T21:45:13.602Z,35.00
2019-02-24T21:47:42.922Z,34.80
2019-02-24T21:50:12.665Z,33.57
2019-02-24T21:52:41.624Z,36.17
2019-02-24T21:55:10.767Z,33.70
2019-02-24T21:57:39.999Z,38.30
2019-02-24T22:00:12.172Z,37.77
2019-02-24T22:02:41.122Z,38.03
2019-02-24T22:05:10.140Z,35.83
2019-02-24T22:07:39.166Z,37.93
2019-02-24T22:10:08.991Z,38.93
2019-02-24T22:12:37.939Z,37.30
2019-02-24T22:15:08.586Z,38.57
2019-02-24T22:17:37.736Z,37.70
2019-02-24T22:20:07.149Z,42.83
2019-02-24T22:22:35.797Z,37.53
2019-02-24T22:25:04.905Z,38.10
2019-02-24T22:27:34.060Z,39.30
2019-02-24T22:30:02.916Z,37.30
2019-02-24T22:32:34.342Z,40.23
2019-02-24T22:35:02.996Z,41.00
2019-02-24T22:37:32.403Z,36.47
2019-02-24T22:40:01.524Z,40.47
2019-02-24T22:42:30.435Z,40.73
2019-02-24T22:44:59.571Z,39.47
2019-02-24T22:47:28.435Z,40.23
2019-02-24T22:49:57.341Z,39.17
2019-02-24T22:52:26.201Z,38.77
2019-02-24T22:54:54.904Z,39.50
2019-02-24T22:57:23.577Z,39.90
2019-02-24T22:59:52.833Z,39.63
2019-02-24T23:02:22.790Z,39.23
2019-02-24T23:04:51.964Z,43.03
2019-02-24T23:07:20.899Z,39.90
2019-02-24T23:09:49.802Z,39.03
2019-02-24T23:12:18.759Z,38.27
2019-02-24T23:14:47.886Z,38.90
2019-02-24T23:17:16.548Z,37.93
2019-02-24T23:19:45.199Z,39.43
2019-02-24T23:22:14.050Z,39.80
2019-02-24T23:24:42.927Z,39.67
2019-02-24T23:27:11.558Z,37.10
2019-02-24T23:29:40.190Z,41.27
2019-02-24T23:32:08.848Z,37.37
2019-02-24T23:34:37.786Z,39.77
2019-02-24T23:37:06.664Z,38.73
2019-02-24T23:39:35.756Z,39.40
2019-02-24T23:42:04.658Z,37.00
2019-02-24T23:44:34.018Z,38.63
2019-02-24T23:47:03.144Z,38.30
2019-02-24T23:49:32.459Z,35.77
2019-02-24T23:52:01.339Z,36.53
2019-02-24T23:54:30.463Z,38.73
2019-02-24T23:56:59.103Z,37.60
2019-02-24T23:59:27.839Z,37.80
